Time;durP1;ratioP1;P1;durP2;ratioP2;P2;SDS_P1;SDS_P2;PMS_P1;PMS_P2;Temp;Humidity;BMP_temperature;BMP_pressure;BME280_temperature;BME280_humidity;BME280_pressure;Samples;Min_cycle;Max_cycle;Signal;HPM_P1;HPM_P2
2023/08/13 00:00:55;;;;;;;;;;;;;;;28.50;45.24;101540.41;5063412;28;19921;-85
2023/08/13 00:03:21;;;;;;;;;;;;;;;28.45;45.40;101529.66;5063967;28;19923;-86
2023/08/13 00:05:46;;;;;;;;;;;;;;;28.42;45.54;101542.19;5063645;28;19920;-86
2023/08/13 00:08:12;;;;;;;;;;;;;;;28.37;45.43;101536.91;5064454;28;20371;-85
2023/08/13 00:10:37;;;;;;;;;;;;;;;28.30;45.62;101536.69;5056826;28;20517;-85
2023/08/13 00:13:03;;;;;;;;;;;;;;;28.22;45.72;101540.38;5057199;28;20513;-86
2023/08/13 00:15:28;;;;;;;;;;;;;;;28.17;46.06;101541.41;5059003;28;20407;-86
2023/08/13 00:17:54;;;;;;;;;;;;;;;28.15;46.05;101546.47;5074094;28;20350;-86
2023/08/13 00:20:19;;;;;;;;;;;;;;;28.17;45.82;101548.88;5071078;28;19921;-87
2023/08/13 00:22:44;;;;;;;;;;;;;;;28.20;45.68;101553.72;5062520;28;19959;-86
2023/08/13 00:25:09;;;;;;;;;;;;;;;28.18;45.55;101550.47;5061926;28;20023;-86
2023/08/13 00:27:35;;;;;;;;;;;;;;;28.16;45.72;101552.78;5060303;28;19923;-86
2023/08/13 00:30:00;;;;;;;;;;;;;;;28.15;45.68;101560.25;5063426;28;19924;-86
2023/08/13 00:32:25;;;;;;;;;;;;;;;28.15;45.61;101573.22;5061588;28;20406;-87
2023/08/13 00:34:51;;;;;;;;;;;;;;;28.11;45.65;101566.78;5060902;28;19921;-86
2023/08/13 00:37:16;;;;;;;;;;;;;;;28.07;45.60;101557.63;5064232;28;19946;-86
2023/08/13 00:39:42;;;;;;;;;;;;;;;28.03;45.69;101554.78;5064639;28;19924;-86
2023/08/13 00:42:07;;;;;;;;;;;;;;;28.00;45.51;101566.47;5065222;28;19928;-86
2023/08/13 00:44:32;;;;;;;;;;;;;;;27.96;45.78;101574.63;5061651;28;20326;-86
2023/08/13 00:46:58;;;;;;;;;;;;;;;27.95;45.75;101575.75;5063007;28;20280;-86
2023/08/13 00:49:24;;;;;;;;;;;;;;;27.91;45.69;101580.38;5058788;28;19978;-86
2023/08/13 00:51:49;;;;;;;;;;;;;;;27.81;45.90;101580.81;5061651;28;20027;-87
2023/08/13 00:54:14;;;;;;;;;;;;;;;27.73;46.09;101580.94;5065389;28;19936;-87
2023/08/13 00:56:40;;;;;;;;;;;;;;;27.70;45.83;101582.44;5061863;28;19966;-86
2023/08/13 00:59:06;;;;;;;;;;;;;;;27.68;46.00;101582.00;5058731;28;19932;-86
2023/08/13 01:01:31;;;;;;;;;;;;;;;27.60;46.56;101596.63;5064605;28;19963;-87
2023/08/13 01:03:57;;;;;;;;;;;;;;;27.60;46.20;101611.19;5064239;28;20007;-86
2023/08/13 01:06:39;;;;;;;;;;;;;;;27.58;46.48;101604.41;5065724;28;19916;-86
2023/08/13 01:09:22;;;;;;;;;;;;;;;27.56;46.02;101607.53;5060549;28;19947;-87
2023/08/13 01:12:06;;;;;;;;;;;;;;;27.52;46.22;101608.56;5062809;28;20261;-86
2023/08/13 01:14:43;;;;;;;;;;;;;;;27.47;46.36;101603.25;5062971;28;20438;-86
2023/08/13 01:17:11;;;;;;;;;;;;;;;27.46;46.09;101604.41;5095783;28;19959;-86
2023/08/13 01:19:36;;;;;;;;;;;;;;;27.47;46.00;101617.00;5058292;28;19916;-87
2023/08/13 01:22:01;;;;;;;;;;;;;;;27.42;46.14;101620.78;5065590;28;19951;-87
2023/08/13 01:24:27;;;;;;;;;;;;;;;27.34;46.25;101627.22;5066232;28;19939;-87
2023/08/13 01:27:01;;;;;;;;;;;;;;;27.28;46.48;101629.34;5072440;28;20064;-87
2023/08/13 01:29:36;;;;;;;;;;;;;;;27.27;46.50;101627.75;5062073;28;19923;-86
2023/08/13 01:32:03;;;;;;;;;;;;;;;27.25;46.57;101630.03;5062343;28;19921;-86
2023/08/13 01:34:29;;;;;;;;;;;;;;;27.24;46.48;101627.63;5064610;28;19917;-87
2023/08/13 01:36:55;;;;;;;;;;;;;;;27.24;46.51;101633.94;5065834;28;19916;-87
2023/08/13 01:39:20;;;;;;;;;;;;;;;27.24;46.49;101622.94;5064113;28;19927;-87
2023/08/13 01:41:53;;;;;;;;;;;;;;;27.27;46.26;101629.69;5060253;28;20412;-87
2023/08/13 01:44:19;;;;;;;;;;;;;;;27.24;46.42;101633.94;5060710;28;19931;-87
2023/08/13 01:46:44;;;;;;;;;;;;;;;27.17;46.51;101628.19;5057409;28;19924;-87
2023/08/13 01:49:09;;;;;;;;;;;;;;;27.13;46.81;101637.47;5060558;28;20339;-87
2023/08/13 01:51:34;;;;;;;;;;;;;;;27.13;46.56;101641.03;5055562;28;20364;-87
2023/08/13 01:54:00;;;;;;;;;;;;;;;27.12;46.72;101642.16;5060754;28;19969;-87
2023/08/13 01:56:25;;;;;;;;;;;;;;;27.12;46.45;101638.63;5061428;28;19916;-87
2023/08/13 01:58:50;;;;;;;;;;;;;;;27.08;46.63;101643.97;5057922;28;19928;-86
2023/08/13 02:01:16;;;;;;;;;;;;;;;27.07;46.39;101645.09;5058723;28;19921;-87
2023/08/13 02:03:41;;;;;;;;;;;;;;;27.04;46.32;101646.59;5060456;28;20011;-87
2023/08/13 02:06:06;;;;;;;;;;;;;;;27.05;46.41;101653.69;5060715;28;19924;-87
2023/08/13 02:08:32;;;;;;;;;;;;;;;27.03;46.47;101653.25;5061662;28;20003;-87
2023/08/13 02:10:58;;;;;;;;;;;;;;;26.99;46.51;101655.03;5062428;28;20003;-86
2023/08/13 02:13:23;;;;;;;;;;;;;;;26.96;46.55;101660.41;5065064;28;19924;-87
2023/08/13 02:15:49;;;;;;;;;;;;;;;26.92;46.70;101664.94;5064339;28;19916;-87
2023/08/13 02:18:14;;;;;;;;;;;;;;;26.88;46.63;101662.06;5060851;28;20028;-87
2023/08/13 02:20:39;;;;;;;;;;;;;;;26.85;46.60;101668.25;5066112;28;19921;-87
2023/08/13 02:23:04;;;;;;;;;;;;;;;26.86;46.49;101658.06;5063525;28;19917;-86
2023/08/13 02:25:30;;;;;;;;;;;;;;;26.84;46.77;101663.09;5059901;28;19924;-87
2023/08/13 02:27:55;;;;;;;;;;;;;;;26.83;46.63;101655.97;5060581;28;19926;-86
2023/08/13 02:30:20;;;;;;;;;;;;;;;26.81;46.55;101661.81;5065041;28;19935;-86
2023/08/13 02:32:46;;;;;;;;;;;;;;;26.77;46.70;101669.13;5063852;28;19940;-87
2023/08/13 02:35:11;;;;;;;;;;;;;;;26.72;46.61;101675.63;5066262;28;20396;-88
2023/08/13 02:37:36;;;;;;;;;;;;;;;26.67;46.90;101686.81;5065695;28;19916;-87
2023/08/13 02:40:02;;;;;;;;;;;;;;;26.66;46.89;101676.16;5067069;28;19965;-86
2023/08/13 02:42:27;;;;;;;;;;;;;;;26.65;46.88;101682.81;5060615;28;20435;-86
2023/08/13 02:44:52;;;;;;;;;;;;;;;26.64;46.83;101682.00;5063759;28;19942;-87
2023/08/13 02:47:18;;;;;;;;;;;;;;;26.61;47.36;101688.16;5066768;28;19977;-88
2023/08/13 02:49:43;;;;;;;;;;;;;;;26.58;46.92;101686.09;5061883;28;19962;-87
2023/08/13 02:52:08;;;;;;;;;;;;;;;26.57;46.95;101703.72;5068707;28;19916;-87
2023/08/13 02:54:34;;;;;;;;;;;;;;;26.56;46.92;101695.78;5061193;28;20292;-87
2023/08/13 02:56:59;;;;;;;;;;;;;;;26.53;46.95;101700.00;5061172;28;19928;-87
2023/08/13 02:59:25;;;;;;;;;;;;;;;26.50;47.15;101700.69;5058979;28;19985;-88
2023/08/13 03:01:50;;;;;;;;;;;;;;;26.49;47.09;101702.63;5061428;28;19967;-87
2023/08/13 03:04:15;;;;;;;;;;;;;;;26.51;47.04;101702.28;5061070;28;20373;-86
2023/08/13 03:06:40;;;;;;;;;;;;;;;26.50;46.81;101697.94;5062473;28;19933;-87
2023/08/13 03:09:06;;;;;;;;;;;;;;;26.51;46.85;101710.53;5060210;28;20016;-87
2023/08/13 03:11:31;;;;;;;;;;;;;;;26.41;47.46;101705.44;5064880;28;19964;-87
2023/08/13 03:13:56;;;;;;;;;;;;;;;26.39;47.13;101705.78;5067456;28;20430;-87
2023/08/13 03:16:22;;;;;;;;;;;;;;;26.38;47.08;101711.56;5066134;28;19925;-87
2023/08/13 03:18:47;;;;;;;;;;;;;;;26.35;47.28;101706.75;5059820;28;19959;-87
2023/08/13 03:21:13;;;;;;;;;;;;;;;26.34;47.20;101708.66;5065577;28;20019;-86
2023/08/13 03:23:38;;;;;;;;;;;;;;;26.33;47.19;101703.50;5061886;28;19978;-87
2023/08/13 03:26:04;;;;;;;;;;;;;;;26.33;47.23;101706.25;5063185;28;20424;-87
2023/08/13 03:28:29;;;;;;;;;;;;;;;26.31;47.16;101706.56;5063197;28;19974;-86
2023/08/13 03:31:01;;;;;;;;;;;;;;;26.31;47.19;101712.06;5066533;28;19920;-86
2023/08/13 03:33:26;;;;;;;;;;;;;;;26.30;47.30;101713.22;5061551;28;19929;-87
2023/08/13 03:35:51;;;;;;;;;;;;;;;26.29;47.24;101721.78;5065403;28;20380;-87
2023/08/13 03:38:17;;;;;;;;;;;;;;;26.22;47.34;101730.56;5064619;28;19916;-87
2023/08/13 03:40:43;;;;;;;;;;;;;;;26.16;47.47;101721.66;5063600;28;20307;-86
2023/08/13 03:43:08;;;;;;;;;;;;;;;26.13;47.46;101733.31;5066286;28;19916;-87
2023/08/13 03:45:33;;;;;;;;;;;;;;;26.14;47.61;101734.13;5062569;28;19935;-87
2023/08/13 03:47:58;;;;;;;;;;;;;;;26.14;47.53;101734.94;5066403;28;19916;-87
2023/08/13 03:50:24;;;;;;;;;;;;;;;26.14;47.50;101740.44;5064793;28;20519;-86
2023/08/13 03:52:49;;;;;;;;;;;;;;;26.13;47.56;101733.31;5061646;28;19912;-87
2023/08/13 03:55:15;;;;;;;;;;;;;;;26.13;47.56;101730.56;5060500;28;19989;-86
2023/08/13 03:57:40;;;;;;;;;;;;;;;26.14;47.56;101734.94;5063724;28;19925;-86
2023/08/13 04:00:06;;;;;;;;;;;;;;;26.16;47.49;101743.63;5065707;28;20469;-87
2023/08/13 04:02:38;;;;;;;;;;;;;;;26.18;47.46;101746.06;5065113;28;20383;-88
2023/08/13 04:05:06;;;;;;;;;;;;;;;26.19;47.50;101748.47;5063737;28;19924;-86
2023/08/13 04:07:32;;;;;;;;;;;;;;;26.20;47.46;101749.28;5061342;28;19917;-87
2023/08/13 04:09:57;;;;;;;;;;;;;;;26.14;47.91;101745.09;5064181;28;19928;-86
2023/08/13 04:12:22;;;;;;;;;;;;;;;26.13;47.68;101744.31;5065937;28;20013;-87
2023/08/13 04:14:47;;;;;;;;;;;;;;;26.14;47.79;101751.41;5059570;28;20406;-87
2023/08/13 04:17:13;;;;;;;;;;;;;;;26.14;47.57;101751.41;5067803;28;19928;-86
2023/08/13 04:19:38;;;;;;;;;;;;;;;26.15;47.82;101750.28;5065093;28;20359;-86
2023/08/13 04:22:03;;;;;;;;;;;;;;;26.15;47.71;101752.22;5065472;28;20384;-87
2023/08/13 04:24:29;;;;;;;;;;;;;;;26.11;47.73;101756.75;5065908;28;20002;-87
2023/08/13 04:26:54;;;;;;;;;;;;;;;26.08;47.49;101758.22;5063223;28;19952;-87
2023/08/13 04:29:19;;;;;;;;;;;;;;;26.07;47.72;101747.56;5062948;28;19925;-86
2023/08/13 04:31:44;;;;;;;;;;;;;;;26.11;47.43;101748.53;5059823;28;19920;-86
2023/08/13 04:34:10;;;;;;;;;;;;;;;26.10;47.52;101749.66;5062035;28;20015;-87
2023/08/13 04:36:36;;;;;;;;;;;;;;;26.11;47.25;101754.81;5062745;28;19924;-87
2023/08/13 04:39:01;;;;;;;;;;;;;;;26.05;47.45;101753.41;5064943;28;20002;-86
2023/08/13 04:41:27;;;;;;;;;;;;;;;26.05;47.33;101753.41;5066676;28;19928;-87
2023/08/13 04:43:52;;;;;;;;;;;;;;;26.05;47.27;101758.88;5064913;28;19935;-86
2023/08/13 04:46:17;;;;;;;;;;;;;;;26.05;47.22;101755.34;5056874;28;19917;-87
2023/08/13 04:48:47;;;;;;;;;;;;;;;26.07;47.30;101753.88;5059460;28;19939;-86
2023/08/13 04:51:13;;;;;;;;;;;;;;;26.08;47.13;101755.47;5064326;28;20031;-87
2023/08/13 04:53:38;;;;;;;;;;;;;;;26.10;47.25;101758.69;5061805;28;20007;-87
2023/08/13 04:56:06;;;;;;;;;;;;;;;26.13;47.15;101763.53;5057870;28;19920;-86
2023/08/13 04:58:32;;;;;;;;;;;;;;;26.14;47.12;101767.88;5061616;28;19917;-86
2023/08/13 05:00:57;;;;;;;;;;;;;;;26.20;47.12;101769.31;5062100;28;19926;-87
2023/08/13 05:03:23;;;;;;;;;;;;;;;26.25;47.13;101765.59;5063744;28;19920;-86
2023/08/13 05:05:48;;;;;;;;;;;;;;;26.31;46.88;101774.44;5064889;28;20331;-87
2023/08/13 05:08:13;;;;;;;;;;;;;;;26.34;46.74;101777.34;5062869;28;19925;-86
2023/08/13 05:10:39;;;;;;;;;;;;;;;26.38;46.50;101777.50;5061607;28;19966;-86
2023/08/13 05:13:04;;;;;;;;;;;;;;;26.36;46.58;101777.84;5058649;28;19924;-86
2023/08/13 05:15:29;;;;;;;;;;;;;;;26.37;46.51;101778.66;5061020;28;20399;-86
2023/08/13 05:17:55;;;;;;;;;;;;;;;26.37;46.61;101786.88;5064330;28;19916;-87
2023/08/13 05:20:20;;;;;;;;;;;;;;;26.35;46.55;101787.22;5059098;28;19924;-86
2023/08/13 05:22:46;;;;;;;;;;;;;;;26.35;46.60;101784.47;5059714;28;19925;-86
2023/08/13 05:25:12;;;;;;;;;;;;;;;26.42;46.57;101779.28;5055879;28;19974;-86
2023/08/13 05:27:37;;;;;;;;;;;;;;;26.45;46.64;101784.13;5063099;28;20376;-87
2023/08/13 05:30:03;;;;;;;;;;;;;;;26.47;46.58;101783.78;5059017;28;20050;-86
2023/08/13 05:32:28;;;;;;;;;;;;;;;26.53;46.44;101779.69;5062077;28;20332;-86
2023/08/13 05:34:54;;;;;;;;;;;;;;;26.63;46.43;101784.84;5057374;28;20383;-86
2023/08/13 05:37:19;;;;;;;;;;;;;;;26.70;46.12;101779.59;5055725;28;19924;-86
2023/08/13 05:39:44;;;;;;;;;;;;;;;26.77;46.03;101781.84;5053395;28;19921;-86
2023/08/13 05:42:10;;;;;;;;;;;;;;;26.82;45.98;101791.84;5062136;28;20615;-86
2023/08/13 05:44:35;;;;;;;;;;;;;;;26.83;45.77;101798.97;5055392;28;20410;-86
2023/08/13 05:47:00;;;;;;;;;;;;;;;26.79;45.89;101799.63;5063058;28;19916;-87
2023/08/13 05:49:25;;;;;;;;;;;;;;;26.82;46.17;101795.41;5061491;28;19998;-87
2023/08/13 05:51:51;;;;;;;;;;;;;;;26.88;46.06;101801.50;5060658;28;19924;-87
2023/08/13 05:54:16;;;;;;;;;;;;;;;26.94;45.92;101801.00;5059552;28;20667;-86
2023/08/13 05:56:41;;;;;;;;;;;;;;;27.06;45.39;101798.34;5062618;28;19967;-85
2023/08/13 05:59:07;;;;;;;;;;;;;;;27.10;45.19;101802.03;5057464;28;19924;-86
2023/08/13 06:01:33;;;;;;;;;;;;;;;27.19;45.37;101806.66;5056107;28;19929;-86
2023/08/13 06:03:58;;;;;;;;;;;;;;;27.29;44.94;101809.84;5060806;28;19920;-85
2023/08/13 06:06:23;;;;;;;;;;;;;;;27.32;44.44;101813.84;5068301;28;20561;-86
2023/08/13 06:08:48;;;;;;;;;;;;;;;27.35;44.54;101814.00;5064480;28;19922;-86
2023/08/13 06:11:14;;;;;;;;;;;;;;;27.38;44.62;101821.56;5067386;28;19924;-87
2023/08/13 06:13:40;;;;;;;;;;;;;;;27.43;44.68;101817.78;5065618;28;19925;-85
2023/08/13 06:16:06;;;;;;;;;;;;;;;27.53;44.45;101819.34;5062228;28;19920;-86
2023/08/13 06:18:32;;;;;;;;;;;;;;;27.58;44.44;101819.94;5058152;28;20291;-86
2023/08/13 06:20:57;;;;;;;;;;;;;;;27.74;44.13;101822.91;5067904;28;20307;-86
2023/08/13 06:23:23;;;;;;;;;;;;;;;27.86;44.16;101825.72;5066355;28;19955;-86
2023/08/13 06:25:48;;;;;;;;;;;;;;;27.99;43.33;101832.84;5059810;28;20505;-86
2023/08/13 06:28:13;;;;;;;;;;;;;;;28.07;43.44;101827.59;5060289;28;20456;-85
2023/08/13 06:30:39;;;;;;;;;;;;;;;28.14;43.40;101827.84;5065925;28;19921;-87
2023/08/13 06:33:04;;;;;;;;;;;;;;;28.26;42.95;101831.47;5063752;28;19927;-85
2023/08/13 06:35:29;;;;;;;;;;;;;;;28.33;42.59;101839.16;5064290;28;19920;-85
2023/08/13 06:37:55;;;;;;;;;;;;;;;28.40;42.36;101833.88;5064299;28;19917;-85
2023/08/13 06:40:20;;;;;;;;;;;;;;;28.51;42.74;101846.06;5063976;28;20572;-85
2023/08/13 06:42:45;;;;;;;;;;;;;;;28.64;42.48;101843.31;5060929;28;20388;-86
2023/08/13 06:45:12;;;;;;;;;;;;;;;28.69;40.90;101838.38;5064991;28;20694;-86
2023/08/13 06:47:38;;;;;;;;;;;;;;;28.71;41.28;101838.81;5064081;28;20513;-87
2023/08/13 06:50:03;;;;;;;;;;;;;;;28.73;41.72;101842.06;5064121;28;19923;-86
2023/08/13 06:52:29;;;;;;;;;;;;;;;28.80;41.39;101842.28;5059207;28;19974;-88
2023/08/13 06:54:54;;;;;;;;;;;;;;;28.92;41.56;101840.72;5063571;28;20391;-85
2023/08/13 06:57:19;;;;;;;;;;;;;;;28.99;40.68;101836.19;5063995;28;20011;-86
2023/08/13 06:59:45;;;;;;;;;;;;;;;29.12;41.12;101840.56;5068075;28;19924;-85
2023/08/13 07:02:10;;;;;;;;;;;;;;;29.26;40.36;101842.13;5058719;28;19944;-85
2023/08/13 07:04:35;;;;;;;;;;;;;;;29.39;40.30;101846.47;5059351;28;20595;-85
2023/08/13 07:07:01;;;;;;;;;;;;;;;29.46;40.35;101841.19;5063859;28;20058;-84
2023/08/13 07:09:27;;;;;;;;;;;;;;;29.52;39.97;101837.03;5063293;28;19921;-85
2023/08/13 07:11:53;;;;;;;;;;;;;;;29.59;39.49;101834.44;5063686;28;19924;-85
2023/08/13 07:14:18;;;;;;;;;;;;;;;29.57;38.57;101839.53;5062622;28;20598;-85
2023/08/13 07:16:44;;;;;;;;;;;;;;;29.56;39.52;101837.13;5066625;28;20402;-85
2023/08/13 07:19:09;;;;;;;;;;;;;;;29.64;39.79;101834.22;5065185;28;19921;-84
2023/08/13 07:21:36;;;;;;;;;;;;;;;29.77;39.52;101834.94;5062840;28;19967;-85
2023/08/13 07:24:03;;;;;;;;;;;;;;;29.88;39.64;101836.06;5060026;28;20478;-85
2023/08/13 07:26:30;;;;;;;;;;;;;;;30.04;39.37;101841.66;5061268;28;19920;-84
2023/08/13 07:28:55;;;;;;;;;;;;;;;30.22;39.16;101842.13;5061867;28;19920;-85
2023/08/13 07:31:20;;;;;;;;;;;;;;;30.40;38.46;101842.56;5061967;28;19921;-85
2023/08/13 07:33:46;;;;;;;;;;;;;;;30.43;37.91;101839.88;5063927;28;19925;-85
2023/08/13 07:36:11;;;;;;;;;;;;;;;30.43;37.91;101848.19;5061007;28;19923;-84
2023/08/13 07:38:36;;;;;;;;;;;;;;;30.47;38.14;101846.31;5056613;28;19966;-84
2023/08/13 07:41:03;;;;;;;;;;;;;;;30.54;37.85;101852.03;5057406;28;19924;-85
2023/08/13 07:43:29;;;;;;;;;;;;;;;30.54;37.94;101845.69;5060424;28;19926;-84
2023/08/13 07:45:54;;;;;;;;;;;;;;;30.64;36.57;101850.69;5063385;28;19921;-85
2023/08/13 07:48:19;;;;;;;;;;;;;;;30.75;37.52;101840.69;5059397;28;19954;-84
2023/08/13 07:50:45;;;;;;;;;;;;;;;30.92;37.32;101845.84;5059694;28;19923;-85
2023/08/13 07:53:10;;;;;;;;;;;;;;;31.00;36.62;101846.81;5058433;28;19924;-84
2023/08/13 07:55:35;;;;;;;;;;;;;;;31.01;37.00;101842.06;5062296;28;19925;-84
2023/08/13 07:58:01;;;;;;;;;;;;;;;31.05;36.68;101848.47;5059577;28;19924;-84
2023/08/13 08:00:26;;;;;;;;;;;;;;;31.18;36.30;101848.03;5058595;28;19932;-84
2023/08/13 08:02:53;;;;;;;;;;;;;;;31.32;36.33;101858.63;5062924;28;20332;-84
2023/08/13 08:05:19;;;;;;;;;;;;;;;31.36;34.18;101851.19;5060497;28;19920;-85
2023/08/13 08:07:44;;;;;;;;;;;;;;;31.38;35.12;101853.59;5060357;28;20058;-84
2023/08/13 08:10:10;;;;;;;;;;;;;;;31.46;35.50;101847.84;5063377;28;20011;-84
2023/08/13 08:12:35;;;;;;;;;;;;;;;31.58;35.49;101849.66;5059813;28;20561;-83
2023/08/13 08:15:01;;;;;;;;;;;;;;;31.71;35.38;101853.06;5060352;28;19925;-84
2023/08/13 08:17:26;;;;;;;;;;;;;;;31.86;33.49;101855.78;5059548;28;19920;-84
2023/08/13 08:19:51;;;;;;;;;;;;;;;32.00;34.90;101860.81;5058481;28;19983;-85
2023/08/13 08:22:17;;;;;;;;;;;;;;;32.14;34.43;101861.06;5056374;28;19935;-83
2023/08/13 08:24:42;;;;;;;;;;;;;;;32.26;33.42;101859.28;5052199;28;19967;-79
2023/08/13 08:27:08;;;;;;;;;;;;;;;32.35;33.72;101863.44;5056202;28;20328;-81
2023/08/13 08:29:34;;;;;;;;;;;;;;;32.41;32.91;101869.47;5056696;28;20473;-80
2023/08/13 08:31:59;;;;;;;;;;;;;;;32.45;32.68;101860.03;5053349;28;19920;-83
2023/08/13 08:34:25;;;;;;;;;;;;;;;32.51;33.17;101863.31;5074003;28;19921;-83
2023/08/13 08:36:51;;;;;;;;;;;;;;;32.64;32.73;101866.69;5056309;28;20051;-81
2023/08/13 08:39:18;;;;;;;;;;;;;;;32.67;32.48;101858.41;5060810;28;20023;-80
2023/08/13 08:41:47;;;;;;;;;;;;;;;32.71;32.55;101866.81;5059435;28;20019;-82
2023/08/13 08:44:22;;;;;;;;;;;;;;;32.78;31.42;101857.78;5058770;28;19994;-80
2023/08/13 08:46:48;;;;;;;;;;;;;;;32.89;32.97;101867.13;5056461;28;19935;-80
2023/08/13 08:49:16;;;;;;;;;;;;;;;33.02;32.58;101868.47;5060224;28;19927;-81
2023/08/13 08:51:41;;;;;;;;;;;;;;;33.07;32.12;101870.16;5059506;28;19924;-81
2023/08/13 08:54:06;;;;;;;;;;;;;;;33.04;32.12;101866.16;5055880;28;19973;-83
2023/08/13 08:56:32;;;;;;;;;;;;;;;32.91;31.34;101857.22;5056803;28;20016;-81
2023/08/13 08:58:57;;;;;;;;;;;;;;;32.84;31.84;101861.88;5058711;28;19932;-83
2023/08/13 09:01:22;;;;;;;;;;;;;;;32.88;31.47;101865.50;5057398;28;19928;-81
2023/08/13 09:03:48;;;;;;;;;;;;;;;33.03;31.55;101861.75;5059563;28;19920;-80
2023/08/13 09:06:13;;;;;;;;;;;;;;;33.09;31.14;101863.03;5057894;28;19927;-81
2023/08/13 09:08:38;;;;;;;;;;;;;;;33.20;31.61;101854.84;5060090;28;19942;-82
2023/08/13 09:11:04;;;;;;;;;;;;;;;33.31;31.38;101856.59;5061282;28;19936;-81
2023/08/13 09:13:29;;;;;;;;;;;;;;;33.20;30.49;101844.53;5058038;28;19952;-80
2023/08/13 09:15:55;;;;;;;;;;;;;;;33.13;30.59;101854.75;5056037;28;20408;-82
2023/08/13 09:18:20;;;;;;;;;;;;;;;33.00;30.80;101852.19;5060927;28;20517;-82
2023/08/13 09:20:48;;;;;;;;;;;;;;;33.03;31.05;101856.19;5061033;28;19924;-82
2023/08/13 09:23:23;;;;;;;;;;;;;;;33.08;30.56;101852.31;5060707;28;19920;-84
2023/08/13 09:25:52;;;;;;;;;;;;;;;33.22;30.80;101841.41;5050448;28;19920;-83
2023/08/13 09:28:18;;;;;;;;;;;;;;;33.47;30.36;101848.09;5053777;28;20123;-84
2023/08/13 09:30:43;;;;;;;;;;;;;;;33.59;30.13;101845.06;5058403;28;19920;-83
2023/08/13 09:33:09;;;;;;;;;;;;;;;33.74;29.82;101851.56;5056778;28;20762;-83
2023/08/13 09:35:34;;;;;;;;;;;;;;;33.74;29.96;101851.56;5062128;28;20482;-82
2023/08/13 09:38:00;;;;;;;;;;;;;;;33.71;29.97;101849.56;5062201;28;20452;-83
2023/08/13 09:40:25;;;;;;;;;;;;;;;33.65;29.92;101848.31;5061089;28;19916;-83
2023/08/13 09:42:52;;;;;;;;;;;;;;;33.77;30.19;101836.13;5058531;28;19928;-83
2023/08/13 09:45:19;;;;;;;;;;;;;;;33.87;30.14;101833.47;5060327;28;19931;-81
2023/08/13 09:47:45;;;;;;;;;;;;;;;33.96;29.88;101843.50;5052809;28;20854;-83
2023/08/13 09:50:12;;;;;;;;;;;;;;;34.09;29.59;101844.81;5055512;28;19917;-83
2023/08/13 09:52:39;;;;;;;;;;;;;;;34.14;29.63;101836.13;5056956;28;19927;-81
2023/08/13 09:55:08;;;;;;;;;;;;;;;34.21;29.50;101833.41;5054940;28;20020;-83
2023/08/13 09:57:34;;;;;;;;;;;;;;;34.07;29.26;101836.06;5054934;28;19925;-83
2023/08/13 09:59:59;;;;;;;;;;;;;;;33.89;29.48;101828.34;5056193;28;20019;-80
2023/08/13 10:02:25;;;;;;;;;;;;;;;33.81;29.50;101818.31;5057141;28;19924;-84
2023/08/13 10:04:52;;;;;;;;;;;;;;;33.88;29.75;101828.72;5059548;28;19928;-81
2023/08/13 10:07:18;;;;;;;;;;;;;;;33.84;29.86;101825.91;5059255;28;19955;-83
2023/08/13 10:09:43;;;;;;;;;;;;;;;33.88;29.72;101821.19;5059749;28;20443;-81
2023/08/13 10:12:11;;;;;;;;;;;;;;;34.10;29.84;101827.72;5060271;28;19923;-81
2023/08/13 10:14:37;;;;;;;;;;;;;;;34.26;29.97;101824.69;5059565;28;19920;-81
2023/08/13 10:17:05;;;;;;;;;;;;;;;34.52;29.63;101821.78;5059345;28;19916;-82
2023/08/13 10:19:31;;;;;;;;;;;;;;;34.66;29.23;101823.06;5060925;28;20026;-83
2023/08/13 10:21:57;;;;;;;;;;;;;;;34.78;28.53;101819.94;5057924;28;19929;-83
2023/08/13 10:24:23;;;;;;;;;;;;;;;34.83;28.66;101823.19;5053325;28;20399;-83
2023/08/13 10:26:48;;;;;;;;;;;;;;;34.76;28.86;101825.09;5056703;28;20540;-83
2023/08/13 10:29:18;;;;;;;;;;;;;;;34.70;29.01;101821.09;5060566;28;20011;-82
2023/08/13 10:31:58;;;;;;;;;;;;;;;34.72;28.81;101821.50;5056705;28;19932;-82
2023/08/13 10:34:39;;;;;;;;;;;;;;;34.59;28.62;101825.78;5053276;28;19924;-83
2023/08/13 10:37:08;;;;;;;;;;;;;;;34.45;28.79;101829.25;5056241;28;19962;-81
2023/08/13 10:39:35;;;;;;;;;;;;;;;34.51;28.91;101828.53;5057122;28;19941;-82
2023/08/13 10:42:23;;;;;;;;;;;;;;;34.70;28.47;101832.22;5056242;28;19925;-84
2023/08/13 10:44:48;;;;;;;;;;;;;;;34.74;28.47;101827.47;5037531;28;19974;-82
2023/08/13 10:47:14;;;;;;;;;;;;;;;34.78;27.30;101828.28;5057261;28;20011;-83
2023/08/13 10:49:40;;;;;;;;;;;;;;;34.78;28.30;101829.09;5059617;28;19924;-82
2023/08/13 10:52:06;;;;;;;;;;;;;;;34.72;28.09;101829.84;5061056;28;19921;-83
2023/08/13 10:54:32;;;;;;;;;;;;;;;34.82;27.72;101834.69;5061379;28;19928;-82
2023/08/13 10:56:58;;;;;;;;;;;;;;;34.90;26.93;101828.00;5063442;28;19928;-83
2023/08/13 10:59:30;;;;;;;;;;;;;;;34.81;27.25;101833.09;5060907;28;19920;-81
2023/08/13 11:02:15;;;;;;;;;;;;;;;34.92;27.43;101831.19;5059592;28;19977;-83
2023/08/13 11:04:42;;;;;;;;;;;;;;;35.03;27.50;101836.84;5063334;28;20015;-83
2023/08/13 11:07:08;;;;;;;;;;;;;;;35.05;26.77;101829.69;5060430;28;20417;-82
2023/08/13 11:09:33;;;;;;;;;;;;;;;35.24;27.10;101836.16;5061893;28;19925;-83
2023/08/13 11:11:58;;;;;;;;;;;;;;;35.40;27.31;101825.50;5056182;28;19967;-81
2023/08/13 11:14:24;;;;;;;;;;;;;;;35.51;26.72;101828.31;5057019;28;20005;-82
2023/08/13 11:16:51;;;;;;;;;;;;;;;35.56;26.63;101814.00;5057989;28;19959;-81
2023/08/13 11:19:16;;;;;;;;;;;;;;;35.62;26.49;101815.22;5058594;28;19920;-83
2023/08/13 11:21:43;;;;;;;;;;;;;;;35.59;26.90;101825.16;5062080;28;19935;-83
2023/08/13 11:24:12;;;;;;;;;;;;;;;35.71;26.43;101821.19;5055164;28;19924;-82
2023/08/13 11:26:38;;;;;;;;;;;;;;;35.80;25.48;101812.47;5054330;28;20715;-83
2023/08/13 11:29:03;;;;;;;;;;;;;;;35.71;25.96;101810.84;5060875;28;19920;-82
2023/08/13 11:31:29;;;;;;;;;;;;;;;35.83;26.64;101812.47;5057362;28;20301;-82
2023/08/13 11:33:54;;;;;;;;;;;;;;;35.91;25.58;101804.91;5060838;28;19982;-83
2023/08/13 11:36:19;;;;;;;;;;;;;;;35.83;25.58;101809.66;5055861;28;20011;-83
2023/08/13 11:38:45;;;;;;;;;;;;;;;35.66;26.28;101805.66;5061058;28;20055;-80
2023/08/13 11:41:11;;;;;;;;;;;;;;;35.64;26.36;101813.63;5060057;28;20034;-84
2023/08/13 11:43:36;;;;;;;;;;;;;;;35.66;26.11;101814.00;5058945;28;19924;-82
2023/08/13 11:46:03;;;;;;;;;;;;;;;35.74;26.44;101812.06;5056964;28;20741;-83
2023/08/13 11:48:30;;;;;;;;;;;;;;;35.87;26.05;101818.06;5061384;28;20368;-83
2023/08/13 11:50:57;;;;;;;;;;;;;;;36.03;26.34;101821.28;5059633;28;19929;-80
2023/08/13 11:53:23;;;;;;;;;;;;;;;36.15;25.87;101817.31;5056651;28;19924;-83
2023/08/13 11:55:48;;;;;;;;;;;;;;;36.13;25.51;101814.13;5057942;28;19974;-83
2023/08/13 11:58:17;;;;;;;;;;;;;;;36.02;25.94;101808.53;5058165;28;20001;-83
2023/08/13 12:00:43;;;;;;;;;;;;;;;35.94;25.86;101812.50;5058176;28;19944;-83
2023/08/13 12:03:08;;;;;;;;;;;;;;;35.86;25.59;101814.47;5055938;28;20296;-81
2023/08/13 12:05:34;;;;;;;;;;;;;;;35.81;26.07;101814.06;5059547;28;19974;-83
2023/08/13 12:08:04;;;;;;;;;;;;;;;35.92;25.82;101812.13;5057516;28;20033;-82
2023/08/13 12:10:30;;;;;;;;;;;;;;;36.04;25.33;101806.13;5055062;28;19928;-84
2023/08/13 12:12:55;;;;;;;;;;;;;;;35.94;25.27;101806.94;5052294;28;19920;-83
2023/08/13 12:15:24;;;;;;;;;;;;;;;35.82;25.47;101810.06;5059434;28;19924;-82
2023/08/13 12:17:53;;;;;;;;;;;;;;;35.84;25.38;101810.50;5057921;28;19920;-82
2023/08/13 12:20:18;;;;;;;;;;;;;;;35.92;25.45;101803.75;5056974;28;19964;-83
2023/08/13 12:22:44;;;;;;;;;;;;;;;35.83;25.22;101795.72;5059235;28;20023;-82
2023/08/13 12:25:09;;;;;;;;;;;;;;;35.85;25.58;101796.16;5060836;28;19942;-83
2023/08/13 12:27:34;;;;;;;;;;;;;;;35.97;25.08;101794.97;5062557;28;20338;-82
2023/08/13 12:30:00;;;;;;;;;;;;;;;36.16;25.73;101799.38;5060172;28;19920;-83